sensor_id;sensor_type;location;lat;lon;timestamp;temperature;humidity
40670;DHT22;26355;45.528;9.234;2022-12-20T00:01:16;8.80;99.90
40670;DHT22;26355;45.528;9.234;2022-12-20T00:03:44;9.20;99.90
40670;DHT22;26355;45.528;9.234;2022-12-20T00:06:11;9.20;99.90
40670;DHT22;26355;45.528;9.234;2022-12-20T00:08:37;8.60;99.90
40670;DHT22;26355;45.528;9.234;2022-12-20T00:11:05;9.60;99.90
40670;DHT22;26355;45.528;9.234;2022-12-20T01:24:18;8.20;99.90
40670;DHT22;26355;45.528;9.234;2022-12-20T01:27:08;8.70;99.90
40670;DHT22;26355;45.528;9.234;2022-12-20T01:30:07;9.00;99.90
40670;DHT22;26355;45.528;9.234;2022-12-20T01:32:42;8.20;99.90
40670;DHT22;26355;45.528;9.234;2022-12-20T01:35:15;8.90;99.90
40670;DHT22;26355;45.528;9.234;2022-12-20T01:37:55;8.80;99.90
40670;DHT22;26355;45.528;9.234;2022-12-20T01:40:34;9.20;99.90
40670;DHT22;26355;45.528;9.234;2022-12-20T01:43:54;9.00;99.90
40670;DHT22;26355;45.528;9.234;2022-12-20T01:46:23;8.70;99.90
40670;DHT22;26355;45.528;9.234;2022-12-20T01:48:59;9.60;99.90
40670;DHT22;26355;45.528;9.234;2022-12-20T01:51:28;9.30;99.90
40670;DHT22;26355;45.528;9.234;2022-12-20T01:54:00;8.80;99.90
40670;DHT22;26355;45.528;9.234;2022-12-20T01:56:26;8.90;99.90
40670;DHT22;26355;45.528;9.234;2022-12-20T01:58:53;9.60;99.90
40670;DHT22;26355;45.528;9.234;2022-12-20T02:01:22;9.00;99.90
40670;DHT22;26355;45.528;9.234;2022-12-20T02:03:48;8.40;99.90
40670;DHT22;26355;45.528;9.234;2022-12-20T02:06:18;8.10;99.90
40670;DHT22;26355;45.528;9.234;2022-12-20T02:08:45;8.80;99.90
40670;DHT22;26355;45.528;9.234;2022-12-20T02:11:33;9.50;99.90
40670;DHT22;26355;45.528;9.234;2022-12-20T02:22:41;8.30;99.90
40670;DHT22;26355;45.528;9.234;2022-12-20T02:30:21;9.20;99.90
40670;DHT22;26355;45.528;9.234;2022-12-20T02:33:09;8.80;99.90
40670;DHT22;26355;45.528;9.234;2022-12-20T02:35:35;9.50;99.90
40670;DHT22;26355;45.528;9.234;2022-12-20T02:38:22;9.50;99.90
40670;DHT22;26355;45.528;9.234;2022-12-20T02:40:51;8.80;99.90
40670;DHT22;26355;45.528;9.234;2022-12-20T02:43:19;8.90;99.90
40670;DHT22;26355;45.528;9.234;2022-12-20T02:46:04;9.60;99.90
40670;DHT22;26355;45.528;9.234;2022-12-20T02:48:32;7.50;99.90
40670;DHT22;26355;45.528;9.234;2022-12-20T02:51:01;9.30;99.90
40670;DHT22;26355;45.528;9.234;2022-12-20T02:53:28;8.60;99.90
40670;DHT22;26355;45.528;9.234;2022-12-20T02:59:05;8.70;99.90
40670;DHT22;26355;45.528;9.234;2022-12-20T03:01:47;9.60;99.90
40670;DHT22;26355;45.528;9.234;2022-12-20T03:04:15;9.60;99.90
40670;DHT22;26355;45.528;9.234;2022-12-20T03:06:56;8.70;99.90
40670;DHT22;26355;45.528;9.234;2022-12-20T03:09:21;8.60;99.90
40670;DHT22;26355;45.528;9.234;2022-12-20T03:11:47;8.60;99.90
40670;DHT22;26355;45.528;9.234;2022-12-20T03:14:13;8.70;99.90
40670;DHT22;26355;45.528;9.234;2022-12-20T03:16:39;8.90;99.90
40670;DHT22;26355;45.528;9.234;2022-12-20T03:19:04;8.60;99.90
40670;DHT22;26355;45.528;9.234;2022-12-20T03:21:30;8.70;99.90
40670;DHT22;26355;45.528;9.234;2022-12-20T03:23:56;8.70;99.90
40670;DHT22;26355;45.528;9.234;2022-12-20T03:26:22;8.70;99.90
40670;DHT22;26355;45.528;9.234;2022-12-20T03:28:47;9.20;99.90
40670;DHT22;26355;45.528;9.234;2022-12-20T03:31:13;8.80;99.90
40670;DHT22;26355;45.528;9.234;2022-12-20T03:33:39;8.60;99.90
40670;DHT22;26355;45.528;9.234;2022-12-20T03:36:05;8.50;99.90
40670;DHT22;26355;45.528;9.234;2022-12-20T03:38:31;8.00;99.90
40670;DHT22;26355;45.528;9.234;2022-12-20T03:40:57;8.40;99.90
40670;DHT22;26355;45.528;9.234;2022-12-20T03:43:23;8.40;99.90
40670;DHT22;26355;45.528;9.234;2022-12-20T03:45:48;8.50;99.90
40670;DHT22;26355;45.528;9.234;2022-12-20T03:48:14;8.60;99.90
40670;DHT22;26355;45.528;9.234;2022-12-20T03:50:40;8.60;99.90
40670;DHT22;26355;45.528;9.234;2022-12-20T03:53:06;7.90;99.90
40670;DHT22;26355;45.528;9.234;2022-12-20T03:55:32;8.50;99.90
40670;DHT22;26355;45.528;9.234;2022-12-20T03:57:57;8.50;99.90
40670;DHT22;26355;45.528;9.234;2022-12-20T04:00:23;8.70;99.90
40670;DHT22;26355;45.528;9.234;2022-12-20T04:02:49;7.90;99.90
40670;DHT22;26355;45.528;9.234;2022-12-20T04:05:15;8.90;99.90
40670;DHT22;26355;45.528;9.234;2022-12-20T04:07:41;8.60;99.90
40670;DHT22;26355;45.528;9.234;2022-12-20T04:10:07;8.10;99.90
40670;DHT22;26355;45.528;9.234;2022-12-20T04:12:33;8.20;99.90
40670;DHT22;26355;45.528;9.234;2022-12-20T04:14:58;8.50;99.90
40670;DHT22;26355;45.528;9.234;2022-12-20T04:17:24;9.50;99.90
40670;DHT22;26355;45.528;9.234;2022-12-20T04:19:50;8.50;99.90
40670;DHT22;26355;45.528;9.234;2022-12-20T04:22:16;8.50;99.90
40670;DHT22;26355;45.528;9.234;2022-12-20T04:24:41;9.30;99.90
40670;DHT22;26355;45.528;9.234;2022-12-20T04:27:07;8.60;99.90
40670;DHT22;26355;45.528;9.234;2022-12-20T04:29:33;8.70;99.90
40670;DHT22;26355;45.528;9.234;2022-12-20T04:31:59;9.40;99.90
40670;DHT22;26355;45.528;9.234;2022-12-20T04:34:25;8.50;99.90
40670;DHT22;26355;45.528;9.234;2022-12-20T04:36:50;8.10;99.90
40670;DHT22;26355;45.528;9.234;2022-12-20T04:39:16;8.20;99.90
40670;DHT22;26355;45.528;9.234;2022-12-20T04:41:42;9.00;99.90
40670;DHT22;26355;45.528;9.234;2022-12-20T04:44:08;8.60;99.90
40670;DHT22;26355;45.528;9.234;2022-12-20T04:46:33;9.30;99.90
40670;DHT22;26355;45.528;9.234;2022-12-20T04:48:59;8.60;99.90
40670;DHT22;26355;45.528;9.234;2022-12-20T04:51:26;8.70;99.90
40670;DHT22;26355;45.528;9.234;2022-12-20T04:53:52;8.80;99.90
40670;DHT22;26355;45.528;9.234;2022-12-20T04:56:28;8.50;99.90
40670;DHT22;26355;45.528;9.234;2022-12-20T04:58:56;8.90;99.90
40670;DHT22;26355;45.528;9.234;2022-12-20T05:01:22;9.40;99.90
40670;DHT22;26355;45.528;9.234;2022-12-20T05:03:48;8.50;99.90
40670;DHT22;26355;45.528;9.234;2022-12-20T05:06:14;8.60;99.90
40670;DHT22;26355;45.528;9.234;2022-12-20T05:08:40;8.50;99.90
40670;DHT22;26355;45.528;9.234;2022-12-20T05:11:07;8.70;99.90
40670;DHT22;26355;45.528;9.234;2022-12-20T05:13:34;8.50;99.90
40670;DHT22;26355;45.528;9.234;2022-12-20T05:16:00;8.60;99.90
40670;DHT22;26355;45.528;9.234;2022-12-20T05:18:26;8.50;99.90
40670;DHT22;26355;45.528;9.234;2022-12-20T05:20:57;8.60;99.90
40670;DHT22;26355;45.528;9.234;2022-12-20T05:23:41;8.70;99.90
40670;DHT22;26355;45.528;9.234;2022-12-20T05:26:30;9.10;99.90
40670;DHT22;26355;45.528;9.234;2022-12-20T05:28:56;8.70;99.90
40670;DHT22;26355;45.528;9.234;2022-12-20T05:31:22;8.20;99.90
40670;DHT22;26355;45.528;9.234;2022-12-20T05:33:48;8.80;99.90
40670;DHT22;26355;45.528;9.234;2022-12-20T05:36:13;8.60;99.90
40670;DHT22;26355;45.528;9.234;2022-12-20T05:38:39;8.80;99.90
40670;DHT22;26355;45.528;9.234;2022-12-20T05:41:05;9.00;99.90
40670;DHT22;26355;45.528;9.234;2022-12-20T05:43:31;8.70;99.90
40670;DHT22;26355;45.528;9.234;2022-12-20T05:45:57;8.90;99.90
40670;DHT22;26355;45.528;9.234;2022-12-20T05:48:23;8.30;99.90
40670;DHT22;26355;45.528;9.234;2022-12-20T05:50:48;9.50;99.90
40670;DHT22;26355;45.528;9.234;2022-12-20T05:53:15;9.00;99.90
40670;DHT22;26355;45.528;9.234;2022-12-20T05:55:47;8.90;99.90
40670;DHT22;26355;45.528;9.234;2022-12-20T05:58:14;9.00;99.90
40670;DHT22;26355;45.528;9.234;2022-12-20T06:00:40;8.90;99.90
40670;DHT22;26355;45.528;9.234;2022-12-20T06:03:07;9.10;99.90
40670;DHT22;26355;45.528;9.234;2022-12-20T06:05:35;9.20;99.90
40670;DHT22;26355;45.528;9.234;2022-12-20T06:08:02;10.10;99.90
40670;DHT22;26355;45.528;9.234;2022-12-20T06:10:28;9.20;99.90
40670;DHT22;26355;45.528;9.234;2022-12-20T06:12:54;9.10;99.90
40670;DHT22;26355;45.528;9.234;2022-12-20T06:15:20;10.30;99.90
40670;DHT22;26355;45.528;9.234;2022-12-20T06:17:45;9.60;99.90
40670;DHT22;26355;45.528;9.234;2022-12-20T06:20:12;9.30;99.90
40670;DHT22;26355;45.528;9.234;2022-12-20T06:22:38;9.30;99.90
40670;DHT22;26355;45.528;9.234;2022-12-20T06:25:05;9.30;99.90
40670;DHT22;26355;45.528;9.234;2022-12-20T06:27:31;9.40;99.90
40670;DHT22;26355;45.528;9.234;2022-12-20T06:29:57;9.60;99.90
40670;DHT22;26355;45.528;9.234;2022-12-20T06:32:23;9.30;99.90
40670;DHT22;26355;45.528;9.234;2022-12-20T06:34:50;9.60;99.90
40670;DHT22;26355;45.528;9.234;2022-12-20T06:37:16;9.60;99.90
40670;DHT22;26355;45.528;9.234;2022-12-20T06:39:42;9.50;99.90
40670;DHT22;26355;45.528;9.234;2022-12-20T06:42:08;9.50;99.90
40670;DHT22;26355;45.528;9.234;2022-12-20T06:44:34;9.40;99.90
40670;DHT22;26355;45.528;9.234;2022-12-20T06:47:00;9.60;99.90
40670;DHT22;26355;45.528;9.234;2022-12-20T06:49:26;9.50;99.90
40670;DHT22;26355;45.528;9.234;2022-12-20T06:51:52;9.60;99.90
40670;DHT22;26355;45.528;9.234;2022-12-20T06:54:18;10.10;99.90
40670;DHT22;26355;45.528;9.234;2022-12-20T06:56:44;10.40;99.90
40670;DHT22;26355;45.528;9.234;2022-12-20T06:59:09;8.70;99.90
40670;DHT22;26355;45.528;9.234;2022-12-20T07:01:35;11.30;99.90
40670;DHT22;26355;45.528;9.234;2022-12-20T07:04:01;9.50;99.90
40670;DHT22;26355;45.528;9.234;2022-12-20T07:06:27;9.50;99.90
40670;DHT22;26355;45.528;9.234;2022-12-20T07:08:54;9.60;99.90
40670;DHT22;26355;45.528;9.234;2022-12-20T07:11:20;9.60;99.90
40670;DHT22;26355;45.528;9.234;2022-12-20T07:13:46;9.50;99.90
40670;DHT22;26355;45.528;9.234;2022-12-20T07:16:11;10.20;99.90
40670;DHT22;26355;45.528;9.234;2022-12-20T07:18:37;8.80;99.90
40670;DHT22;26355;45.528;9.234;2022-12-20T07:21:04;10.00;99.90
40670;DHT22;26355;45.528;9.234;2022-12-20T07:23:31;9.90;99.90
40670;DHT22;26355;45.528;9.234;2022-12-20T07:25:59;9.70;99.90
40670;DHT22;26355;45.528;9.234;2022-12-20T07:28:26;9.60;99.90
40670;DHT22;26355;45.528;9.234;2022-12-20T07:30:53;9.70;99.90
40670;DHT22;26355;45.528;9.234;2022-12-20T07:33:20;9.20;99.90
40670;DHT22;26355;45.528;9.234;2022-12-20T07:35:45;9.60;99.90
40670;DHT22;26355;45.528;9.234;2022-12-20T07:38:12;9.70;99.90
40670;DHT22;26355;45.528;9.234;2022-12-20T07:40:41;9.90;99.90
40670;DHT22;26355;45.528;9.234;2022-12-20T07:43:08;9.70;99.90
40670;DHT22;26355;45.528;9.234;2022-12-20T07:45:35;9.60;99.90
40670;DHT22;26355;45.528;9.234;2022-12-20T07:48:03;9.70;99.90
40670;DHT22;26355;45.528;9.234;2022-12-20T07:50:29;9.60;99.90
40670;DHT22;26355;45.528;9.234;2022-12-20T07:52:56;9.10;99.90
40670;DHT22;26355;45.528;9.234;2022-12-20T07:55:23;9.10;99.90
40670;DHT22;26355;45.528;9.234;2022-12-20T07:57:53;9.90;99.90
40670;DHT22;26355;45.528;9.234;2022-12-20T08:00:20;9.80;99.90
40670;DHT22;26355;45.528;9.234;2022-12-20T08:03:07;9.80;99.90
40670;DHT22;26355;45.528;9.234;2022-12-20T08:05:37;9.40;99.90
40670;DHT22;26355;45.528;9.234;2022-12-20T08:08:04;9.30;99.90
40670;DHT22;26355;45.528;9.234;2022-12-20T08:10:30;9.80;99.90
40670;DHT22;26355;45.528;9.234;2022-12-20T08:12:57;9.80;99.90
40670;DHT22;26355;45.528;9.234;2022-12-20T08:15:23;9.50;99.90
40670;DHT22;26355;45.528;9.234;2022-12-20T08:17:49;9.90;99.90
40670;DHT22;26355;45.528;9.234;2022-12-20T08:20:15;9.70;99.90
40670;DHT22;26355;45.528;9.234;2022-12-20T08:22:41;9.80;99.90
40670;DHT22;26355;45.528;9.234;2022-12-20T08:25:07;9.80;99.90
40670;DHT22;26355;45.528;9.234;2022-12-20T08:27:33;10.40;99.90
40670;DHT22;26355;45.528;9.234;2022-12-20T08:29:59;9.90;99.90
40670;DHT22;26355;45.528;9.234;2022-12-20T08:32:26;10.50;99.90
40670;DHT22;26355;45.528;9.234;2022-12-20T08:34:52;10.00;99.90
40670;DHT22;26355;45.528;9.234;2022-12-20T08:37:21;9.60;99.90
40670;DHT22;26355;45.528;9.234;2022-12-20T08:39:47;10.40;99.90
40670;DHT22;26355;45.528;9.234;2022-12-20T08:42:13;9.70;99.90
40670;DHT22;26355;45.528;9.234;2022-12-20T08:44:39;9.80;99.90
40670;DHT22;26355;45.528;9.234;2022-12-20T08:47:05;9.90;99.90
40670;DHT22;26355;45.528;9.234;2022-12-20T08:49:31;9.90;99.90
40670;DHT22;26355;45.528;9.234;2022-12-20T08:51:56;9.90;99.90
40670;DHT22;26355;45.528;9.234;2022-12-20T08:54:22;9.90;99.90
40670;DHT22;26355;45.528;9.234;2022-12-20T08:56:48;10.00;99.90
40670;DHT22;26355;45.528;9.234;2022-12-20T08:59:14;9.90;99.90
40670;DHT22;26355;45.528;9.234;2022-12-20T09:01:40;10.10;99.90
40670;DHT22;26355;45.528;9.234;2022-12-20T09:04:05;9.60;99.90
40670;DHT22;26355;45.528;9.234;2022-12-20T09:06:33;9.70;99.90
40670;DHT22;26355;45.528;9.234;2022-12-20T09:09:00;9.80;99.90
40670;DHT22;26355;45.528;9.234;2022-12-20T09:11:26;10.80;99.90
40670;DHT22;26355;45.528;9.234;2022-12-20T09:13:55;10.10;99.90
40670;DHT22;26355;45.528;9.234;2022-12-20T09:16:24;10.20;99.90
40670;DHT22;26355;45.528;9.234;2022-12-20T09:18:51;10.20;99.90
40670;DHT22;26355;45.528;9.234;2022-12-20T09:21:18;10.20;99.90
40670;DHT22;26355;45.528;9.234;2022-12-20T09:23:44;10.10;99.90
40670;DHT22;26355;45.528;9.234;2022-12-20T09:26:13;10.90;99.90
40670;DHT22;26355;45.528;9.234;2022-12-20T09:28:40;10.10;99.90
40670;DHT22;26355;45.528;9.234;2022-12-20T09:31:09;9.60;99.90
40670;DHT22;26355;45.528;9.234;2022-12-20T09:33:35;9.90;99.90
40670;DHT22;26355;45.528;9.234;2022-12-20T09:36:02;9.60;99.90
40670;DHT22;26355;45.528;9.234;2022-12-20T09:38:30;10.30;99.90
40670;DHT22;26355;45.528;9.234;2022-12-20T09:41:14;9.60;99.90
40670;DHT22;26355;45.528;9.234;2022-12-20T09:43:40;10.10;99.90
40670;DHT22;26355;45.528;9.234;2022-12-20T09:46:06;10.10;99.90
40670;DHT22;26355;45.528;9.234;2022-12-20T09:48:38;10.10;99.90
40670;DHT22;26355;45.528;9.234;2022-12-20T09:51:27;10.00;99.90
40670;DHT22;26355;45.528;9.234;2022-12-20T09:54:14;10.40;99.90
40670;DHT22;26355;45.528;9.234;2022-12-20T09:59:28;9.90;99.90
40670;DHT22;26355;45.528;9.234;2022-12-20T10:01:54;9.90;99.90
40670;DHT22;26355;45.528;9.234;2022-12-20T10:04:28;9.90;99.90
40670;DHT22;26355;45.528;9.234;2022-12-20T10:20:49;9.40;99.90
40670;DHT22;26355;45.528;9.234;2022-12-20T10:23:22;9.30;99.90
40670;DHT22;26355;45.528;9.234;2022-12-20T10:25:52;9.80;99.90
40670;DHT22;26355;45.528;9.234;2022-12-20T10:28:22;9.80;99.90
40670;DHT22;26355;45.528;9.234;2022-12-20T10:30:49;10.00;99.90
40670;DHT22;26355;45.528;9.234;2022-12-20T10:33:22;10.00;99.90
40670;DHT22;26355;45.528;9.234;2022-12-20T10:35:49;9.70;99.90
40670;DHT22;26355;45.528;9.234;2022-12-20T10:38:16;9.60;99.90
40670;DHT22;26355;45.528;9.234;2022-12-20T10:40:59;10.20;99.90
40670;DHT22;26355;45.528;9.234;2022-12-20T10:43:27;9.90;99.90
40670;DHT22;26355;45.528;9.234;2022-12-20T10:46:05;9.80;99.90
40670;DHT22;26355;45.528;9.234;2022-12-20T10:48:39;9.90;99.90
40670;DHT22;26355;45.528;9.234;2022-12-20T10:53:35;10.10;99.90
40670;DHT22;26355;45.528;9.234;2022-12-20T10:56:17;10.20;99.90
40670;DHT22;26355;45.528;9.234;2022-12-20T11:01:21;10.50;99.90
40670;DHT22;26355;45.528;9.234;2022-12-20T11:03:56;10.10;99.90
40670;DHT22;26355;45.528;9.234;2022-12-20T11:12:11;10.30;99.90
40670;DHT22;26355;45.528;9.234;2022-12-20T11:14:42;10.10;99.90
40670;DHT22;26355;45.528;9.234;2022-12-20T11:17:18;11.20;99.90
40670;DHT22;26355;45.528;9.234;2022-12-20T11:19:53;10.70;99.90
40670;DHT22;26355;45.528;9.234;2022-12-20T11:25:37;10.60;99.90
40670;DHT22;26355;45.528;9.234;2022-12-20T11:33:35;10.80;99.90
40670;DHT22;26355;45.528;9.234;2022-12-20T11:36:16;10.60;99.90
40670;DHT22;26355;45.528;9.234;2022-12-20T11:38:48;10.40;99.90
40670;DHT22;26355;45.528;9.234;2022-12-20T11:47:22;10.50;99.90
40670;DHT22;26355;45.528;9.234;2022-12-20T11:53:04;10.60;99.90
40670;DHT22;26355;45.528;9.234;2022-12-20T11:55:40;10.50;99.90
40670;DHT22;26355;45.528;9.234;2022-12-20T11:58:19;10.50;99.90
40670;DHT22;26355;45.528;9.234;2022-12-20T12:01:11;10.40;99.90
40670;DHT22;26355;45.528;9.234;2022-12-20T12:04:40;9.90;99.90
40670;DHT22;26355;45.528;9.234;2022-12-20T12:07:10;10.50;99.90
40670;DHT22;26355;45.528;9.234;2022-12-20T12:14:42;10.20;99.90
40670;DHT22;26355;45.528;9.234;2022-12-20T12:18:00;10.10;99.90
40670;DHT22;26355;45.528;9.234;2022-12-20T12:23:02;10.20;99.90
40670;DHT22;26355;45.528;9.234;2022-12-20T12:25:30;10.30;99.90
40670;DHT22;26355;45.528;9.234;2022-12-20T12:27:56;9.40;99.90
40670;DHT22;26355;45.528;9.234;2022-12-20T12:30:22;10.30;99.90
40670;DHT22;26355;45.528;9.234;2022-12-20T12:32:56;10.10;99.90
40670;DHT22;26355;45.528;9.234;2022-12-20T12:46:46;9.70;99.90
40670;DHT22;26355;45.528;9.234;2022-12-20T12:49:19;10.00;99.90
40670;DHT22;26355;45.528;9.234;2022-12-20T12:51:59;10.00;99.90
40670;DHT22;26355;45.528;9.234;2022-12-20T12:54:35;10.10;99.90
40670;DHT22;26355;45.528;9.234;2022-12-20T12:57:16;9.90;99.90
40670;DHT22;26355;45.528;9.234;2022-12-20T12:59:45;9.70;99.90
40670;DHT22;26355;45.528;9.234;2022-12-20T13:10:53;10.40;99.90
40670;DHT22;26355;45.528;9.234;2022-12-20T13:25:36;10.80;99.90
40670;DHT22;26355;45.528;9.234;2022-12-20T13:30:47;11.30;99.90
40670;DHT22;26355;45.528;9.234;2022-12-20T13:33:45;10.80;99.90
40670;DHT22;26355;45.528;9.234;2022-12-20T13:39:28;10.70;99.90
40670;DHT22;26355;45.528;9.234;2022-12-20T13:42:33;11.20;99.90
40670;DHT22;26355;45.528;9.234;2022-12-20T13:45:38;10.80;99.90
40670;DHT22;26355;45.528;9.234;2022-12-20T13:48:25;10.30;99.90
40670;DHT22;26355;45.528;9.234;2022-12-20T13:50:57;10.40;99.90
40670;DHT22;26355;45.528;9.234;2022-12-20T13:53:27;10.30;99.90
40670;DHT22;26355;45.528;9.234;2022-12-20T13:55:54;10.40;99.90
40670;DHT22;26355;45.528;9.234;2022-12-20T13:58:24;10.50;99.90
40670;DHT22;26355;45.528;9.234;2022-12-20T14:00:53;9.90;99.90
40670;DHT22;26355;45.528;9.234;2022-12-20T14:03:26;10.30;99.90
40670;DHT22;26355;45.528;9.234;2022-12-20T14:08:58;10.20;99.90
40670;DHT22;26355;45.528;9.234;2022-12-20T14:11:26;10.20;99.90
40670;DHT22;26355;45.528;9.234;2022-12-20T14:16:19;10.00;99.90
40670;DHT22;26355;45.528;9.234;2022-12-20T14:19:10;9.80;99.90
40670;DHT22;26355;45.528;9.234;2022-12-20T14:21:45;9.90;99.90
40670;DHT22;26355;45.528;9.234;2022-12-20T14:24:17;10.60;99.90
40670;DHT22;26355;45.528;9.234;2022-12-20T14:26:47;10.00;99.90
40670;DHT22;26355;45.528;9.234;2022-12-20T14:29:24;10.10;99.90
40670;DHT22;26355;45.528;9.234;2022-12-20T14:31:52;9.90;99.90
40670;DHT22;26355;45.528;9.234;2022-12-20T14:34:30;10.00;99.90
40670;DHT22;26355;45.528;9.234;2022-12-20T14:37:37;10.10;99.90
40670;DHT22;26355;45.528;9.234;2022-12-20T14:42:39;10.00;99.90
40670;DHT22;26355;45.528;9.234;2022-12-20T14:47:35;10.10;99.90
40670;DHT22;26355;45.528;9.234;2022-12-20T14:50:05;10.10;99.90
40670;DHT22;26355;45.528;9.234;2022-12-20T14:55:18;10.90;99.90
40670;DHT22;26355;45.528;9.234;2022-12-20T14:57:53;10.10;99.90
40670;DHT22;26355;45.528;9.234;2022-12-20T15:00:30;10.00;99.90
40670;DHT22;26355;45.528;9.234;2022-12-20T15:03:01;10.20;99.90
40670;DHT22;26355;45.528;9.234;2022-12-20T15:08:26;10.30;99.90
40670;DHT22;26355;45.528;9.234;2022-12-20T15:13:30;10.50;99.90
40670;DHT22;26355;45.528;9.234;2022-12-20T15:16:04;10.50;99.90
40670;DHT22;26355;45.528;9.234;2022-12-20T15:18:30;11.10;99.90
40670;DHT22;26355;45.528;9.234;2022-12-20T15:21:17;11.00;99.90
40670;DHT22;26355;45.528;9.234;2022-12-20T15:23:49;10.80;99.90
40670;DHT22;26355;45.528;9.234;2022-12-20T15:26:20;10.90;99.90
40670;DHT22;26355;45.528;9.234;2022-12-20T15:28:46;10.70;99.90
40670;DHT22;26355;45.528;9.234;2022-12-20T15:31:14;10.70;99.90
40670;DHT22;26355;45.528;9.234;2022-12-20T15:33:43;10.60;99.90
40670;DHT22;26355;45.528;9.234;2022-12-20T15:36:29;10.80;99.90
40670;DHT22;26355;45.528;9.234;2022-12-20T15:38:57;11.40;99.90
40670;DHT22;26355;45.528;9.234;2022-12-20T15:41:25;10.80;99.90
40670;DHT22;26355;45.528;9.234;2022-12-20T15:43:56;10.80;99.90
40670;DHT22;26355;45.528;9.234;2022-12-20T15:46:23;10.70;99.90
40670;DHT22;26355;45.528;9.234;2022-12-20T15:48:49;10.00;99.90
40670;DHT22;26355;45.528;9.234;2022-12-20T15:51:35;10.20;99.90
40670;DHT22;26355;45.528;9.234;2022-12-20T15:54:05;10.60;99.90
40670;DHT22;26355;45.528;9.234;2022-12-20T15:56:32;9.60;99.90
40670;DHT22;26355;45.528;9.234;2022-12-20T15:58:58;10.60;99.90
40670;DHT22;26355;45.528;9.234;2022-12-20T16:01:27;10.40;99.90
40670;DHT22;26355;45.528;9.234;2022-12-20T16:03:53;10.20;99.90
40670;DHT22;26355;45.528;9.234;2022-12-20T16:06:19;10.40;99.90
40670;DHT22;26355;45.528;9.234;2022-12-20T16:08:45;10.10;99.90
40670;DHT22;26355;45.528;9.234;2022-12-20T16:11:22;10.30;99.90
40670;DHT22;26355;45.528;9.234;2022-12-20T16:13:48;10.40;99.90
40670;DHT22;26355;45.528;9.234;2022-12-20T16:16:21;10.30;99.90
40670;DHT22;26355;45.528;9.234;2022-12-20T16:18:47;10.20;99.90
40670;DHT22;26355;45.528;9.234;2022-12-20T16:21:17;10.20;99.90
40670;DHT22;26355;45.528;9.234;2022-12-20T16:23:44;10.20;99.90
40670;DHT22;26355;45.528;9.234;2022-12-20T16:26:14;9.70;99.90
40670;DHT22;26355;45.528;9.234;2022-12-20T16:28:41;10.00;99.90
40670;DHT22;26355;45.528;9.234;2022-12-20T16:33:42;10.20;99.90
40670;DHT22;26355;45.528;9.234;2022-12-20T16:36:11;10.10;99.90
40670;DHT22;26355;45.528;9.234;2022-12-20T16:38:38;10.00;99.90
40670;DHT22;26355;45.528;9.234;2022-12-20T16:43:41;10.10;99.90
40670;DHT22;26355;45.528;9.234;2022-12-20T16:46:10;10.00;99.90
40670;DHT22;26355;45.528;9.234;2022-12-20T16:48:36;10.00;99.90
40670;DHT22;26355;45.528;9.234;2022-12-20T16:53:56;9.70;99.90
40670;DHT22;26355;45.528;9.234;2022-12-20T16:56:23;10.10;99.90
40670;DHT22;26355;45.528;9.234;2022-12-20T16:58:49;10.10;99.90
40670;DHT22;26355;45.528;9.234;2022-12-20T17:01:17;10.10;99.90
40670;DHT22;26355;45.528;9.234;2022-12-20T17:03:46;10.10;99.90
40670;DHT22;26355;45.528;9.234;2022-12-20T17:06:13;10.10;99.90
40670;DHT22;26355;45.528;9.234;2022-12-20T17:08:39;10.00;99.90
40670;DHT22;26355;45.528;9.234;2022-12-20T17:11:15;10.10;99.90
40670;DHT22;26355;45.528;9.234;2022-12-20T17:13:42;9.90;99.90
40670;DHT22;26355;45.528;9.234;2022-12-20T17:16:12;10.00;99.90
40670;DHT22;26355;45.528;9.234;2022-12-20T17:18:42;9.90;99.90
40670;DHT22;26355;45.528;9.234;2022-12-20T17:21:36;9.90;99.90
40670;DHT22;26355;45.528;9.234;2022-12-20T17:24:04;9.90;99.90
40670;DHT22;26355;45.528;9.234;2022-12-20T17:26:33;9.90;99.90
40670;DHT22;26355;45.528;9.234;2022-12-20T17:28:59;9.50;99.90
40670;DHT22;26355;45.528;9.234;2022-12-20T17:31:36;10.20;99.90
40670;DHT22;26355;45.528;9.234;2022-12-20T17:36:52;9.90;99.90
40670;DHT22;26355;45.528;9.234;2022-12-20T17:39:19;9.90;99.90
40670;DHT22;26355;45.528;9.234;2022-12-20T17:41:45;10.10;99.90
40670;DHT22;26355;45.528;9.234;2022-12-20T17:44:20;10.10;99.90
40670;DHT22;26355;45.528;9.234;2022-12-20T17:46:47;9.90;99.90
40670;DHT22;26355;45.528;9.234;2022-12-20T17:49:13;10.40;99.90
40670;DHT22;26355;45.528;9.234;2022-12-20T17:51:39;10.20;99.90
40670;DHT22;26355;45.528;9.234;2022-12-20T17:54:05;10.30;99.90
40670;DHT22;26355;45.528;9.234;2022-12-20T17:56:33;10.60;99.90
40670;DHT22;26355;45.528;9.234;2022-12-20T17:59:00;10.50;99.90
40670;DHT22;26355;45.528;9.234;2022-12-20T18:01:31;10.50;99.90
40670;DHT22;26355;45.528;9.234;2022-12-20T18:03:59;10.50;99.90
40670;DHT22;26355;45.528;9.234;2022-12-20T18:06:26;10.70;99.90
40670;DHT22;26355;45.528;9.234;2022-12-20T18:08:54;10.60;99.90
40670;DHT22;26355;45.528;9.234;2022-12-20T18:11:21;10.60;99.90
40670;DHT22;26355;45.528;9.234;2022-12-20T18:13:49;10.90;99.90
40670;DHT22;26355;45.528;9.234;2022-12-20T18:16:17;10.70;99.90
40670;DHT22;26355;45.528;9.234;2022-12-20T18:18:44;10.60;99.90
40670;DHT22;26355;45.528;9.234;2022-12-20T18:21:12;10.60;99.90
40670;DHT22;26355;45.528;9.234;2022-12-20T18:23:40;10.50;99.90
40670;DHT22;26355;45.528;9.234;2022-12-20T18:26:15;10.30;99.90
40670;DHT22;26355;45.528;9.234;2022-12-20T18:28:44;10.40;99.90
40670;DHT22;26355;45.528;9.234;2022-12-20T18:31:12;10.30;99.90
40670;DHT22;26355;45.528;9.234;2022-12-20T18:33:39;10.20;99.90
40670;DHT22;26355;45.528;9.234;2022-12-20T18:36:07;10.30;99.90
40670;DHT22;26355;45.528;9.234;2022-12-20T18:38:37;10.40;99.90
40670;DHT22;26355;45.528;9.234;2022-12-20T18:41:06;10.20;99.90
40670;DHT22;26355;45.528;9.234;2022-12-20T18:43:34;10.40;99.90
40670;DHT22;26355;45.528;9.234;2022-12-20T18:46:14;10.20;99.90
40670;DHT22;26355;45.528;9.234;2022-12-20T18:48:41;10.20;99.90
40670;DHT22;26355;45.528;9.234;2022-12-20T18:51:21;10.20;99.90
40670;DHT22;26355;45.528;9.234;2022-12-20T18:53:48;10.20;99.90
40670;DHT22;26355;45.528;9.234;2022-12-20T18:56:16;10.00;99.90
40670;DHT22;26355;45.528;9.234;2022-12-20T18:58:43;10.10;99.90
40670;DHT22;26355;45.528;9.234;2022-12-20T19:01:18;10.50;99.90
40670;DHT22;26355;45.528;9.234;2022-12-20T19:03:44;10.10;99.90
40670;DHT22;26355;45.528;9.234;2022-12-20T19:06:11;9.70;99.90
40670;DHT22;26355;45.528;9.234;2022-12-20T19:08:37;10.00;99.90
40670;DHT22;26355;45.528;9.234;2022-12-20T19:11:12;10.10;99.90
40670;DHT22;26355;45.528;9.234;2022-12-20T19:13:40;10.40;99.90
40670;DHT22;26355;45.528;9.234;2022-12-20T19:16:23;10.70;99.90
40670;DHT22;26355;45.528;9.234;2022-12-20T19:18:50;10.00;99.90
40670;DHT22;26355;45.528;9.234;2022-12-20T19:21:23;9.90;99.90
40670;DHT22;26355;45.528;9.234;2022-12-20T19:23:52;9.80;99.90
40670;DHT22;26355;45.528;9.234;2022-12-20T19:26:20;9.80;99.90